首页
METAR-TAF:

METAR-TAF

机场 :

贝娜齐尔·布托国际机场

伊斯兰堡, 巴基斯坦

纬度: 33-37N, 经度: 073-06E, 海拔: 507米

当前天气观测

该预报发布于31分钟前的17:30 UTC
风速10节,风向
温度 30°C
湿度 38%
气压 1002 hPa
能见度10公里或以上
少量云层高于10000英尺

METAR: OPRN 231730Z 09010KT 9999 FEW100 30/14 Q1002 NOSIG RMK A2961

时间: 23:01 (18:01 UTC)

预报

该预报发布于2小时和31分钟前的15:30 UTC
预报有效从23日的 18点(UTC)到 24日的 24点(UTC)
风速10节,风向北转东北
能见度10公里或以上
散云层高于10000英尺
散云层高于18000英尺
几率 03% :
短暂存在
从 23日的 21点(UTC)到 24日的 03点(UTC)
风速15节,风向东南,有时为25节阵风
能見度: 5000
散云层高于4000英尺
多云层高于10000英尺
附近有雷暴
成为
从 24日的 04点(UTC)到 24日的 06点(UTC)
风速10节,风向西转西北
能见度10公里或以上
少量云层高于4000英尺

TAF: OPRN 231530Z 2318/2424 03010KT 9999 SCT100 SCT180 PROB030 TEMPO 2321/2403 13015G25KT 5000 VCTS FEW030TCU/CB SCT040 BKN100 BECMG 2404/2406 30010KT 9999 FEW040

超过4000个机场的气象观测和天气预报(METAR&TAF报告)。

可查询的气象台以黄色和红色小点在地图上表示。

将鼠标移到小点上方,可查看气象台名称。

然后点击查看天气观测和预报。

如需切换地图:点击带黑十字的绿色按钮放大地图;点击带横线的绿色按钮缩小地图;或者点击绿色箭头查看邻近地区的地图。


METAR-TAF: